createdAt,value
2023-10-06T00:02:29.746Z,2.67
2023-10-06T00:04:57.108Z,2.85
2023-10-06T00:07:25.227Z,2.53
2023-10-06T00:09:54.894Z,2.78
2023-10-06T00:12:21.708Z,2.60
2023-10-06T00:14:51.491Z,2.63
2023-10-06T00:17:18.911Z,2.90
2023-10-06T00:22:19.065Z,2.95
2023-10-06T00:24:48.958Z,2.35
2023-10-06T00:27:16.751Z,3.00
2023-10-06T00:29:53.820Z,2.92
2023-10-06T00:32:23.433Z,2.50
2023-10-06T00:34:55.620Z,2.33
2023-10-06T00:37:25.834Z,3.03
2023-10-06T00:39:58.510Z,2.55
2023-10-06T00:42:27.761Z,2.72
2023-10-06T00:44:54.943Z,2.13
2023-10-06T00:47:22.628Z,2.67
2023-10-06T00:49:49.497Z,2.65
2023-10-06T00:52:16.800Z,2.20
2023-10-06T00:54:45.010Z,2.75
2023-10-06T00:57:20.055Z,2.38
2023-10-06T00:59:46.746Z,2.75
2023-10-06T01:02:17.240Z,3.00
2023-10-06T01:04:53.757Z,3.10
2023-10-06T01:07:20.434Z,2.47
2023-10-06T01:10:08.116Z,3.20
2023-10-06T01:12:35.741Z,2.80
2023-10-06T01:15:20.806Z,2.50
2023-10-06T01:17:48.736Z,1.90
2023-10-06T01:20:34.741Z,2.10
2023-10-06T01:25:29.361Z,2.33
2023-10-06T01:27:55.829Z,2.00
2023-10-06T01:30:22.895Z,2.38
2023-10-06T01:32:52.824Z,2.00
2023-10-06T01:35:22.383Z,2.00
2023-10-06T01:37:49.559Z,2.03
2023-10-06T01:40:36.494Z,2.40
2023-10-06T01:43:11.099Z,2.55
2023-10-06T01:45:45.041Z,2.33
2023-10-06T01:48:14.698Z,2.53
2023-10-06T01:50:42.673Z,2.70
2023-10-06T01:53:11.514Z,2.03
2023-10-06T01:55:39.615Z,2.40
2023-10-06T01:58:08.778Z,2.45
2023-10-06T02:00:37.143Z,2.13
2023-10-06T02:03:11.987Z,2.80
2023-10-06T02:05:42.094Z,2.55
2023-10-06T02:08:15.852Z,2.50
2023-10-06T02:13:12.753Z,2.15
2023-10-06T02:15:39.306Z,2.55
2023-10-06T02:18:08.443Z,2.40
2023-10-06T02:20:36.100Z,2.40
2023-10-06T02:23:04.552Z,2.30
2023-10-06T02:25:32.841Z,2.50
2023-10-06T02:28:05.261Z,2.00
2023-10-06T02:30:35.229Z,2.17
2023-10-06T02:33:01.991Z,2.65
2023-10-06T02:35:28.649Z,2.63
2023-10-06T02:37:59.034Z,2.10
2023-10-06T02:40:32.393Z,2.55
2023-10-06T02:43:01.359Z,2.45
2023-10-06T02:45:38.425Z,2.20
2023-10-06T02:48:15.505Z,2.58
2023-10-06T02:50:45.733Z,2.17
2023-10-06T02:53:21.283Z,2.40
2023-10-06T02:55:50.377Z,2.17
2023-10-06T02:58:28.150Z,2.20
2023-10-06T03:00:56.832Z,2.53
2023-10-06T03:03:28.018Z,2.85
2023-10-06T03:05:56.981Z,2.78
2023-10-06T03:08:29.002Z,2.70
2023-10-06T03:10:55.562Z,2.47
2023-10-06T03:13:44.119Z,3.05
2023-10-06T03:16:13.807Z,2.72
2023-10-06T03:18:40.870Z,2.95
2023-10-06T03:21:13.400Z,2.58
2023-10-06T03:23:40.466Z,2.97
2023-10-06T03:26:25.839Z,2.55
2023-10-06T03:28:54.345Z,3.03
2023-10-06T03:31:21.623Z,2.53
2023-10-06T03:33:56.073Z,2.50
2023-10-06T03:36:35.530Z,2.20
2023-10-06T03:39:08.316Z,2.63
2023-10-06T03:41:38.364Z,2.40
2023-10-06T03:44:06.247Z,2.50
2023-10-06T03:46:39.218Z,2.80
2023-10-06T03:49:06.602Z,2.67
2023-10-06T03:51:38.927Z,2.70
2023-10-06T03:54:06.399Z,2.53
2023-10-06T03:56:33.641Z,2.65
2023-10-06T03:59:06.482Z,2.80
2023-10-06T04:01:33.359Z,2.40
2023-10-06T04:04:00.103Z,2.83
2023-10-06T04:06:29.659Z,2.75
2023-10-06T04:08:58.245Z,2.45
2023-10-06T04:11:31.047Z,2.83
2023-10-06T04:13:59.049Z,3.28
2023-10-06T04:16:26.397Z,2.40
2023-10-06T04:18:52.978Z,2.88
2023-10-06T04:21:21.338Z,2.80
2023-10-06T04:23:47.886Z,2.47
2023-10-06T04:26:17.724Z,3.22
2023-10-06T04:28:49.248Z,2.70
2023-10-06T04:31:19.586Z,2.70
2023-10-06T04:33:46.278Z,2.65
2023-10-06T04:36:14.236Z,2.70
2023-10-06T04:38:41.701Z,3.10
2023-10-06T04:43:37.589Z,2.95
2023-10-06T04:48:37.063Z,2.60
2023-10-06T04:51:05.042Z,2.83
2023-10-06T04:53:37.644Z,3.40
2023-10-06T04:56:05.720Z,3.17
2023-10-06T04:58:32.547Z,2.80
2023-10-06T05:01:02.009Z,3.50
2023-10-06T05:03:28.917Z,2.92
2023-10-06T05:05:57.061Z,2.67
2023-10-06T05:08:25.812Z,3.35
2023-10-06T05:10:57.152Z,3.08
2023-10-06T05:13:23.856Z,3.33
2023-10-06T05:15:51.284Z,2.95
2023-10-06T05:18:17.954Z,2.70
2023-10-06T05:20:44.894Z,2.97
2023-10-06T05:23:13.110Z,3.55
2023-10-06T05:25:40.995Z,2.72
2023-10-06T05:28:12.031Z,2.90
2023-10-06T05:30:39.678Z,2.90
2023-10-06T05:35:39.748Z,3.13
2023-10-06T05:38:09.800Z,3.20
2023-10-06T05:40:36.644Z,2.80
2023-10-06T05:43:05.505Z,2.88
2023-10-06T05:45:32.270Z,2.80
2023-10-06T05:48:08.089Z,3.22
2023-10-06T05:50:36.867Z,2.90
2023-10-06T05:53:13.984Z,3.25
2023-10-06T05:55:44.302Z,2.90
2023-10-06T05:58:15.685Z,3.55
2023-10-06T06:00:52.455Z,3.70
2023-10-06T06:03:22.015Z,4.03
2023-10-06T06:05:49.912Z,2.38
2023-10-06T06:08:16.501Z,3.25
2023-10-06T06:10:43.276Z,2.85
2023-10-06T06:13:09.878Z,2.63
2023-10-06T06:15:36.716Z,3.38
2023-10-06T06:18:03.406Z,2.95
2023-10-06T06:20:30.369Z,3.08
2023-10-06T06:23:03.447Z,3.08
2023-10-06T06:25:30.864Z,3.53
2023-10-06T06:28:00.512Z,3.00
2023-10-06T06:30:28.069Z,2.85
2023-10-06T06:32:55.829Z,3.50
2023-10-06T06:35:24.292Z,2.83
2023-10-06T06:37:52.578Z,3.25
2023-10-06T06:40:23.580Z,3.42
2023-10-06T06:42:52.638Z,2.85
2023-10-06T06:45:20.324Z,2.65
2023-10-06T06:50:15.235Z,2.60
2023-10-06T06:52:42.251Z,3.17
2023-10-06T06:55:13.921Z,2.65
2023-10-06T06:57:43.233Z,2.88
2023-10-06T07:00:16.935Z,3.00
2023-10-06T07:05:15.264Z,3.00
2023-10-06T07:07:44.414Z,3.30
2023-10-06T07:10:14.986Z,3.25
2023-10-06T07:12:46.178Z,3.58
2023-10-06T07:15:19.084Z,3.00
2023-10-06T07:17:47.975Z,2.70
2023-10-06T07:20:17.930Z,3.45
2023-10-06T07:22:48.734Z,3.47
2023-10-06T07:25:16.848Z,2.80
2023-10-06T07:27:45.747Z,3.10
2023-10-06T07:30:16.012Z,2.83
2023-10-06T07:32:44.410Z,2.30
2023-10-06T07:35:15.819Z,2.40
2023-10-06T07:37:44.242Z,3.45
2023-10-06T07:40:15.848Z,2.42
2023-10-06T07:42:43.715Z,2.53
2023-10-06T07:45:10.709Z,2.83
2023-10-06T07:47:39.169Z,2.75
2023-10-06T07:50:06.712Z,2.60
2023-10-06T07:55:10.916Z,2.70
2023-10-06T08:00:08.205Z,2.47
2023-10-06T08:02:34.762Z,2.55
2023-10-06T08:05:01.274Z,2.20
2023-10-06T08:07:28.860Z,2.60
2023-10-06T08:09:59.999Z,2.60
2023-10-06T08:12:28.391Z,2.78
2023-10-06T08:14:55.604Z,2.83
2023-10-06T08:17:22.187Z,2.67
2023-10-06T08:19:48.788Z,3.30
2023-10-06T08:22:17.035Z,2.80
2023-10-06T08:24:44.629Z,2.78
2023-10-06T08:29:39.638Z,2.65
2023-10-06T08:32:07.713Z,2.90
2023-10-06T08:34:40.344Z,2.75
2023-10-06T08:37:12.288Z,2.72
2023-10-06T08:39:41.915Z,2.70
2023-10-06T08:42:13.195Z,2.33
2023-10-06T08:44:43.121Z,3.08
2023-10-06T08:47:26.313Z,2.80
2023-10-06T08:49:57.614Z,3.03
2023-10-06T08:52:24.274Z,2.47
2023-10-06T08:54:50.771Z,2.38
2023-10-06T08:57:17.301Z,3.13
2023-10-06T08:59:45.014Z,2.58
2023-10-06T09:02:11.708Z,2.47
2023-10-06T09:04:38.377Z,2.72
2023-10-06T09:07:09.795Z,2.50
2023-10-06T09:09:37.504Z,2.78
2023-10-06T09:12:05.047Z,2.50
2023-10-06T09:17:02.918Z,2.67
2023-10-06T09:19:50.027Z,2.35
2023-10-06T09:22:17.778Z,2.63
2023-10-06T09:24:57.068Z,2.47
2023-10-06T09:27:26.366Z,2.38
2023-10-06T09:30:11.874Z,2.58
2023-10-06T09:32:40.307Z,2.55
2023-10-06T09:35:20.555Z,3.05
2023-10-06T09:37:47.751Z,3.25
2023-10-06T09:40:24.021Z,2.70
2023-10-06T09:42:51.937Z,3.70
2023-10-06T09:45:22.665Z,3.13
2023-10-06T09:48:00.753Z,2.42
2023-10-06T09:50:29.692Z,2.75
2023-10-06T09:53:04.445Z,2.13
2023-10-06T09:55:32.473Z,1.70
2023-10-06T09:57:59.538Z,2.13
2023-10-06T10:00:31.045Z,2.40
2023-10-06T10:02:59.281Z,2.03
2023-10-06T10:05:26.618Z,2.05
2023-10-06T10:10:24.825Z,2.15
2023-10-06T10:13:08.790Z,1.83
2023-10-06T10:16:11.027Z,1.88
2023-10-06T10:18:41.751Z,2.38
2023-10-06T10:21:13.139Z,1.95
2023-10-06T10:23:42.734Z,1.80
2023-10-06T10:26:17.497Z,1.90
2023-10-06T10:28:46.861Z,1.80
2023-10-06T10:31:18.735Z,2.45
2023-10-06T10:33:48.111Z,2.03
2023-10-06T10:36:16.089Z,1.77
2023-10-06T10:38:43.502Z,1.63
2023-10-06T10:41:11.330Z,1.52
2023-10-06T10:43:46.853Z,1.60
2023-10-06T10:46:14.035Z,1.63
2023-10-06T10:48:48.699Z,1.30
2023-10-06T10:51:16.439Z,1.25
2023-10-06T10:53:49.087Z,1.30
2023-10-06T10:56:26.511Z,1.55
2023-10-06T10:58:55.000Z,1.80
2023-10-06T11:01:28.931Z,1.55
2023-10-06T11:04:20.033Z,1.60
2023-10-06T11:06:51.042Z,1.73
2023-10-06T11:09:30.846Z,1.90
2023-10-06T11:12:23.222Z,1.60
2023-10-06T11:14:53.294Z,1.55
2023-10-06T11:17:22.006Z,1.70
2023-10-06T11:20:06.136Z,1.60
2023-10-06T11:22:34.364Z,1.85
2023-10-06T11:25:04.671Z,1.83
2023-10-06T11:27:31.270Z,2.03
2023-10-06T11:29:59.932Z,1.92
2023-10-06T11:32:27.827Z,1.95
2023-10-06T11:34:55.701Z,1.65
2023-10-06T11:37:26.288Z,1.73
2023-10-06T11:39:54.692Z,1.52
2023-10-06T11:42:27.288Z,1.60
2023-10-06T11:44:54.454Z,1.50
2023-10-06T11:47:25.783Z,1.40
2023-10-06T11:49:58.573Z,1.45
2023-10-06T11:52:31.003Z,1.40
2023-10-06T11:54:59.905Z,1.40
2023-10-06T11:57:47.446Z,1.33
2023-10-06T12:00:18.516Z,1.20
2023-10-06T12:02:51.545Z,1.10
2023-10-06T12:05:24.249Z,1.10
2023-10-06T12:07:51.129Z,1.50
2023-10-06T12:10:20.083Z,1.40
2023-10-06T12:12:47.336Z,1.30
2023-10-06T12:15:17.923Z,1.00
2023-10-06T12:17:45.029Z,1.17
2023-10-06T12:20:15.317Z,0.90
2023-10-06T12:22:45.219Z,1.40
2023-10-06T12:25:13.085Z,1.70
2023-10-06T12:27:44.768Z,1.20
2023-10-06T12:30:15.767Z,1.30
2023-10-06T12:32:46.835Z,1.13
2023-10-06T12:35:19.268Z,1.02
2023-10-06T12:37:47.585Z,1.20
2023-10-06T12:40:16.688Z,1.10
2023-10-06T12:42:44.406Z,1.02
2023-10-06T12:45:19.623Z,1.50
2023-10-06T12:47:50.747Z,1.20
2023-10-06T12:50:20.371Z,1.17
2023-10-06T12:52:50.919Z,1.30
2023-10-06T12:55:22.208Z,1.27
2023-10-06T12:57:53.403Z,1.05
2023-10-06T13:00:21.069Z,1.00
2023-10-06T13:02:51.117Z,1.10
2023-10-06T13:05:20.126Z,1.25
2023-10-06T13:07:48.140Z,1.00
2023-10-06T13:10:17.124Z,1.02
2023-10-06T13:12:44.750Z,1.20
2023-10-06T13:15:15.959Z,1.10
2023-10-06T13:17:43.142Z,1.25
2023-10-06T13:20:11.147Z,1.23
2023-10-06T13:22:38.789Z,1.30
2023-10-06T13:25:07.622Z,1.35
2023-10-06T13:27:35.175Z,1.30
2023-10-06T13:30:04.774Z,1.30
2023-10-06T13:32:31.559Z,1.20
2023-10-06T13:34:58.299Z,0.95
2023-10-06T13:37:25.304Z,1.40
2023-10-06T13:39:51.787Z,1.17
2023-10-06T13:42:18.622Z,1.40
2023-10-06T13:44:45.948Z,1.30
2023-10-06T13:47:12.531Z,0.98
2023-10-06T13:49:39.820Z,1.10
2023-10-06T13:52:06.946Z,1.42
2023-10-06T13:57:01.739Z,1.10
2023-10-06T13:59:29.853Z,1.23
2023-10-06T14:01:56.611Z,1.52
2023-10-06T14:04:25.011Z,1.20
2023-10-06T14:06:51.612Z,1.00
2023-10-06T14:09:24.942Z,1.20
2023-10-06T14:11:53.344Z,1.60
2023-10-06T14:14:55.875Z,1.30
2023-10-06T14:17:27.762Z,1.20
2023-10-06T14:19:54.392Z,1.20
2023-10-06T14:22:22.502Z,1.45
2023-10-06T14:24:49.723Z,1.15
2023-10-06T14:29:46.416Z,1.20
2023-10-06T14:32:19.799Z,1.20
2023-10-06T14:35:13.444Z,1.20
2023-10-06T14:37:41.617Z,1.30
2023-10-06T14:40:27.715Z,1.40
2023-10-06T14:43:13.019Z,1.27
2023-10-06T14:45:58.063Z,1.30
2023-10-06T14:48:28.592Z,1.30
2023-10-06T14:50:58.927Z,1.45
2023-10-06T14:53:29.514Z,1.40
2023-10-06T14:55:57.385Z,1.45
2023-10-06T14:58:24.359Z,1.00
2023-10-06T15:00:50.893Z,1.10
2023-10-06T15:03:18.467Z,1.33
2023-10-06T15:05:46.444Z,1.30
2023-10-06T15:08:13.885Z,1.20
2023-10-06T15:10:42.068Z,1.35
2023-10-06T15:13:14.847Z,1.33
2023-10-06T15:15:43.640Z,1.50
2023-10-06T15:18:16.486Z,1.63
2023-10-06T15:20:43.782Z,1.50
2023-10-06T15:23:14.223Z,1.33
2023-10-06T15:25:54.094Z,1.27
2023-10-06T15:28:31.791Z,1.48
2023-10-06T15:31:05.878Z,1.30
2023-10-06T15:33:34.088Z,1.50
2023-10-06T15:36:04.603Z,1.85
2023-10-06T15:38:32.316Z,1.30
2023-10-06T15:41:16.930Z,1.20
2023-10-06T15:43:46.930Z,1.48
2023-10-06T15:46:16.215Z,1.15
2023-10-06T15:48:43.343Z,1.40
2023-10-06T15:51:12.166Z,1.48
2023-10-06T15:53:41.006Z,1.40
2023-10-06T15:56:16.181Z,1.60
2023-10-06T15:58:45.274Z,1.60
2023-10-06T16:01:13.200Z,1.58
2023-10-06T16:03:42.271Z,2.05
2023-10-06T16:06:13.622Z,2.00
2023-10-06T16:08:44.434Z,1.90
2023-10-06T16:11:11.514Z,1.90
2023-10-06T16:13:40.301Z,1.73
2023-10-06T16:16:12.593Z,1.80
2023-10-06T16:18:39.826Z,1.85
2023-10-06T16:21:12.641Z,1.63
2023-10-06T16:23:42.225Z,1.60
2023-10-06T16:26:10.457Z,1.52
2023-10-06T16:28:40.371Z,1.60
2023-10-06T16:31:08.234Z,1.77
2023-10-06T16:33:37.567Z,1.60
2023-10-06T16:36:07.694Z,1.60
2023-10-06T16:38:34.820Z,1.50
2023-10-06T16:41:01.860Z,1.60
2023-10-06T16:43:35.813Z,1.70
2023-10-06T16:46:12.196Z,1.40
2023-10-06T16:48:42.353Z,1.58
2023-10-06T16:51:09.462Z,1.50
2023-10-06T16:53:37.172Z,1.60
2023-10-06T16:56:06.034Z,1.88
2023-10-06T16:58:33.027Z,1.70
2023-10-06T17:01:05.526Z,1.67
2023-10-06T17:03:33.393Z,1.77
2023-10-06T17:06:00.844Z,2.20
2023-10-06T17:08:27.643Z,2.08
2023-10-06T17:10:54.195Z,2.20
2023-10-06T17:13:23.639Z,3.10
2023-10-06T17:15:50.468Z,2.63
2023-10-06T17:18:17.198Z,2.60
2023-10-06T17:20:45.361Z,2.85
2023-10-06T17:23:12.826Z,2.45
2023-10-06T17:28:07.707Z,2.90
2023-10-06T17:30:37.091Z,3.15
2023-10-06T17:33:08.183Z,2.60
2023-10-06T17:35:35.642Z,2.95
2023-10-06T17:38:02.422Z,2.30
2023-10-06T17:40:30.174Z,2.03
2023-10-06T17:42:56.706Z,1.90
2023-10-06T17:45:26.616Z,2.20
2023-10-06T17:47:56.530Z,2.67
2023-10-06T17:50:24.028Z,3.00
2023-10-06T17:52:50.789Z,2.53
2023-10-06T17:55:17.436Z,2.30
2023-10-06T17:57:43.988Z,2.13
2023-10-06T18:00:12.212Z,2.38
2023-10-06T18:02:39.843Z,3.58
2023-10-06T18:05:09.621Z,4.25
2023-10-06T18:07:36.714Z,4.15
2023-10-06T18:10:09.125Z,3.92
2023-10-06T18:12:37.860Z,7.53
2023-10-06T18:15:06.651Z,5.47
2023-10-06T18:17:33.665Z,3.20
2023-10-06T18:20:00.296Z,6.80
2023-10-06T18:22:28.226Z,4.00
2023-10-06T18:24:54.836Z,3.00
2023-10-06T18:27:22.176Z,2.78
2023-10-06T18:29:48.643Z,2.67
2023-10-06T18:32:15.736Z,3.38
2023-10-06T18:34:43.157Z,3.33
2023-10-06T18:37:09.829Z,4.25
2023-10-06T18:39:37.135Z,3.92
2023-10-06T18:42:03.722Z,3.80
2023-10-06T18:44:30.336Z,3.70
2023-10-06T18:46:56.969Z,3.63
2023-10-06T18:49:23.590Z,3.30
2023-10-06T18:51:50.236Z,3.10
2023-10-06T18:54:16.739Z,3.33
2023-10-06T18:56:43.419Z,3.05
2023-10-06T18:59:10.088Z,2.95
2023-10-06T19:01:37.076Z,2.90
2023-10-06T19:04:07.168Z,2.80
2023-10-06T19:06:33.969Z,2.67
2023-10-06T19:09:00.511Z,2.83
2023-10-06T19:11:27.056Z,3.08
2023-10-06T19:13:53.862Z,2.75
2023-10-06T19:16:21.548Z,2.90
2023-10-06T19:18:51.475Z,3.38
2023-10-06T19:21:21.766Z,3.45
2023-10-06T19:23:49.585Z,3.10
2023-10-06T19:26:20.846Z,2.80
2023-10-06T19:28:48.070Z,2.28
2023-10-06T19:31:14.923Z,2.40
2023-10-06T19:33:52.147Z,2.90
2023-10-06T19:36:20.933Z,2.55
2023-10-06T19:38:48.623Z,2.40
2023-10-06T19:43:43.049Z,2.03
2023-10-06T19:46:11.317Z,2.15
2023-10-06T19:48:43.810Z,2.40
2023-10-06T19:51:11.144Z,2.20
2023-10-06T19:53:38.293Z,2.40
2023-10-06T19:56:05.633Z,2.13
2023-10-06T19:58:32.900Z,2.63
2023-10-06T20:01:00.049Z,2.45
2023-10-06T20:03:27.393Z,2.90
2023-10-06T20:05:54.790Z,2.28
2023-10-06T20:08:21.797Z,2.72
2023-10-06T20:10:53.489Z,2.53
2023-10-06T20:13:20.256Z,2.80
2023-10-06T20:15:47.412Z,2.38
2023-10-06T20:18:15.231Z,2.38
2023-10-06T20:20:43.332Z,2.70
2023-10-06T20:23:09.855Z,2.75
2023-10-06T20:25:36.313Z,2.72
2023-10-06T20:28:04.128Z,2.67
2023-10-06T20:30:31.678Z,2.30
2023-10-06T20:32:58.574Z,2.40
2023-10-06T20:35:27.884Z,2.20
2023-10-06T20:37:56.005Z,2.40
2023-10-06T20:40:25.948Z,2.58
2023-10-06T20:42:56.924Z,2.25
2023-10-06T20:45:28.117Z,3.03
2023-10-06T20:47:56.385Z,2.63
2023-10-06T20:50:26.733Z,2.50
2023-10-06T20:52:54.449Z,2.92
2023-10-06T20:55:21.842Z,2.35
2023-10-06T20:57:49.676Z,2.55
2023-10-06T21:00:23.000Z,2.80
2023-10-06T21:02:49.824Z,2.80
2023-10-06T21:05:18.319Z,2.65
2023-10-06T21:07:45.651Z,2.58
2023-10-06T21:10:14.587Z,2.75
2023-10-06T21:12:43.378Z,2.38
2023-10-06T21:15:11.987Z,2.83
2023-10-06T21:17:39.358Z,2.70
2023-10-06T21:22:35.307Z,2.10
2023-10-06T21:25:01.914Z,2.30
2023-10-06T21:27:29.266Z,2.33
2023-10-06T21:29:55.829Z,2.60
2023-10-06T21:32:22.323Z,2.38
2023-10-06T21:34:49.888Z,2.05
2023-10-06T21:37:16.473Z,2.00
2023-10-06T21:39:45.442Z,2.17
2023-10-06T21:42:12.153Z,2.42
2023-10-06T21:44:38.685Z,2.72
2023-10-06T21:47:05.398Z,2.20
2023-10-06T21:49:32.277Z,2.13
2023-10-06T21:51:59.486Z,2.20
2023-10-06T21:54:25.949Z,2.55
2023-10-06T21:56:53.071Z,2.58
2023-10-06T21:59:19.561Z,2.38
2023-10-06T22:01:46.196Z,2.28
2023-10-06T22:04:14.626Z,2.00
2023-10-06T22:06:41.423Z,2.08
2023-10-06T22:09:16.355Z,2.20
2023-10-06T22:11:45.301Z,2.55
2023-10-06T22:14:13.430Z,2.05
2023-10-06T22:16:41.191Z,2.47
2023-10-06T22:19:11.005Z,2.25
2023-10-06T22:21:37.939Z,2.50
2023-10-06T22:24:06.651Z,2.40
2023-10-06T22:26:33.257Z,2.00
2023-10-06T22:29:00.204Z,2.33
2023-10-06T22:31:27.156Z,2.40
2023-10-06T22:33:56.562Z,2.20
2023-10-06T22:36:24.215Z,2.38
2023-10-06T22:38:55.149Z,2.10
2023-10-06T22:41:21.906Z,2.33
2023-10-06T22:43:48.813Z,2.45
2023-10-06T22:46:16.138Z,2.55
2023-10-06T22:48:45.405Z,2.10
2023-10-06T22:51:13.661Z,2.50
2023-10-06T22:53:40.136Z,2.40
2023-10-06T22:56:07.286Z,2.50
2023-10-06T22:58:34.030Z,2.40
2023-10-06T23:01:01.458Z,2.40
2023-10-06T23:03:30.484Z,2.50
2023-10-06T23:05:58.048Z,2.22
2023-10-06T23:08:25.382Z,2.22
2023-10-06T23:10:52.196Z,2.30
2023-10-06T23:13:19.018Z,2.35
2023-10-06T23:15:48.464Z,2.40
2023-10-06T23:18:18.270Z,2.50
2023-10-06T23:20:47.379Z,2.00
2023-10-06T23:23:14.369Z,1.73
2023-10-06T23:25:47.658Z,2.05
2023-10-06T23:28:15.199Z,2.55
2023-10-06T23:30:42.193Z,2.47
2023-10-06T23:33:11.359Z,2.20
2023-10-06T23:35:38.583Z,2.30
2023-10-06T23:38:08.097Z,2.72
2023-10-06T23:40:35.659Z,2.25
2023-10-06T23:43:02.441Z,2.05
2023-10-06T23:45:32.183Z,2.30
2023-10-06T23:47:59.983Z,2.53
2023-10-06T23:50:30.360Z,2.38
2023-10-06T23:53:01.417Z,2.10
2023-10-06T23:55:29.191Z,1.95
2023-10-06T23:57:56.051Z,2.53
